sensor_id;sensor_type;location;lat;lon;timestamp;temperature;humidity
46335;DHT22;32051;48.882;9.210;2023-05-07T07:20:22;18.90;99.90
46335;DHT22;32051;48.882;9.210;2023-05-07T07:22:48;18.80;99.90
46335;DHT22;32051;48.882;9.210;2023-05-07T07:25:15;18.80;99.90
46335;DHT22;32051;48.882;9.210;2023-05-07T07:27:41;18.80;99.90
46335;DHT22;32051;48.882;9.210;2023-05-07T07:30:08;18.90;99.90
46335;DHT22;32051;48.882;9.210;2023-05-07T07:32:37;18.90;99.90
46335;DHT22;32051;48.882;9.210;2023-05-07T07:35:03;18.90;99.90
46335;DHT22;32051;48.882;9.210;2023-05-07T07:37:31;18.90;99.90
46335;DHT22;32051;48.882;9.210;2023-05-07T07:39:57;19.00;99.90
46335;DHT22;32051;48.882;9.210;2023-05-07T07:42:23;19.10;99.90
46335;DHT22;32051;48.882;9.210;2023-05-07T07:44:49;19.30;99.90
46335;DHT22;32051;48.882;9.210;2023-05-07T07:47:17;19.30;99.90
46335;DHT22;32051;48.882;9.210;2023-05-07T07:49:43;19.40;99.90
46335;DHT22;32051;48.882;9.210;2023-05-07T07:52:10;19.50;99.90
46335;DHT22;32051;48.882;9.210;2023-05-07T07:54:37;19.70;99.90
46335;DHT22;32051;48.882;9.210;2023-05-07T07:57:05;19.90;99.90
46335;DHT22;32051;48.882;9.210;2023-05-07T07:59:33;20.00;99.90
46335;DHT22;32051;48.882;9.210;2023-05-07T08:01:59;19.90;99.90
46335;DHT22;32051;48.882;9.210;2023-05-07T08:04:27;19.90;99.90
46335;DHT22;32051;48.882;9.210;2023-05-07T08:06:54;19.90;99.90
46335;DHT22;32051;48.882;9.210;2023-05-07T08:09:22;19.90;99.90
46335;DHT22;32051;48.882;9.210;2023-05-07T08:11:49;20.00;99.90
46335;DHT22;32051;48.882;9.210;2023-05-07T08:14:15;20.00;99.90
46335;DHT22;32051;48.882;9.210;2023-05-07T08:16:44;20.00;99.90
46335;DHT22;32051;48.882;9.210;2023-05-07T08:19:10;20.00;99.90
46335;DHT22;32051;48.882;9.210;2023-05-07T08:21:38;20.10;99.90
46335;DHT22;32051;48.882;9.210;2023-05-07T08:24:05;20.10;99.90
46335;DHT22;32051;48.882;9.210;2023-05-07T08:26:30;20.20;99.90
46335;DHT22;32051;48.882;9.210;2023-05-07T08:28:56;20.20;99.90
46335;DHT22;32051;48.882;9.210;2023-05-07T08:31:22;20.30;99.90
46335;DHT22;32051;48.882;9.210;2023-05-07T08:33:47;20.40;99.90
46335;DHT22;32051;48.882;9.210;2023-05-07T08:36:13;20.40;99.90
46335;DHT22;32051;48.882;9.210;2023-05-07T08:38:39;20.50;99.90
46335;DHT22;32051;48.882;9.210;2023-05-07T08:41:10;20.50;99.90
46335;DHT22;32051;48.882;9.210;2023-05-07T08:43:38;20.60;99.90
46335;DHT22;32051;48.882;9.210;2023-05-07T08:46:08;20.70;99.90
46335;DHT22;32051;48.882;9.210;2023-05-07T08:48:37;20.80;99.90
46335;DHT22;32051;48.882;9.210;2023-05-07T08:51:08;21.00;99.90
46335;DHT22;32051;48.882;9.210;2023-05-07T08:53:35;21.20;99.90
46335;DHT22;32051;48.882;9.210;2023-05-07T08:56:02;21.30;99.90
46335;DHT22;32051;48.882;9.210;2023-05-07T08:58:29;21.50;99.90
46335;DHT22;32051;48.882;9.210;2023-05-07T09:00:55;21.70;99.90
46335;DHT22;32051;48.882;9.210;2023-05-07T09:05:51;22.30;99.90
46335;DHT22;32051;48.882;9.210;2023-05-07T09:08:18;22.60;99.90
46335;DHT22;32051;48.882;9.210;2023-05-07T09:10:48;22.70;99.90
46335;DHT22;32051;48.882;9.210;2023-05-07T09:13:13;22.80;99.90
46335;DHT22;32051;48.882;9.210;2023-05-07T09:15:40;22.80;99.90
46335;DHT22;32051;48.882;9.210;2023-05-07T09:18:06;22.90;99.90
46335;DHT22;32051;48.882;9.210;2023-05-07T09:20:33;23.00;99.90
46335;DHT22;32051;48.882;9.210;2023-05-07T09:23:01;23.00;99.90
46335;DHT22;32051;48.882;9.210;2023-05-07T09:25:34;23.00;99.90
46335;DHT22;32051;48.882;9.210;2023-05-07T09:28:06;23.20;99.90
46335;DHT22;32051;48.882;9.210;2023-05-07T09:30:34;23.40;99.90
46335;DHT22;32051;48.882;9.210;2023-05-07T09:33:03;23.50;99.90
46335;DHT22;32051;48.882;9.210;2023-05-07T09:35:31;23.70;99.90
46335;DHT22;32051;48.882;9.210;2023-05-07T09:38:02;23.80;99.90
46335;DHT22;32051;48.882;9.210;2023-05-07T09:40:31;23.80;99.90
46335;DHT22;32051;48.882;9.210;2023-05-07T09:43:11;23.90;99.90
46335;DHT22;32051;48.882;9.210;2023-05-07T09:45:41;24.00;99.90
46335;DHT22;32051;48.882;9.210;2023-05-07T09:48:09;24.10;99.60
46335;DHT22;32051;48.882;9.210;2023-05-07T09:50:49;24.10;99.70
46335;DHT22;32051;48.882;9.210;2023-05-07T09:53:17;24.20;99.40
46335;DHT22;32051;48.882;9.210;2023-05-07T09:55:44;24.30;99.00
46335;DHT22;32051;48.882;9.210;2023-05-07T09:58:12;24.40;99.90
46335;DHT22;32051;48.882;9.210;2023-05-07T10:00:39;24.60;99.50
46335;DHT22;32051;48.882;9.210;2023-05-07T10:03:10;24.70;99.10
46335;DHT22;32051;48.882;9.210;2023-05-07T10:05:44;24.70;97.70
46335;DHT22;32051;48.882;9.210;2023-05-07T10:08:13;24.80;99.90
46335;DHT22;32051;48.882;9.210;2023-05-07T10:10:40;24.90;99.90
46335;DHT22;32051;48.882;9.210;2023-05-07T10:13:10;25.00;99.90
46335;DHT22;32051;48.882;9.210;2023-05-07T10:15:39;25.10;99.90
46335;DHT22;32051;48.882;9.210;2023-05-07T10:18:06;25.30;99.90
46335;DHT22;32051;48.882;9.210;2023-05-07T10:20:33;25.40;99.40
46335;DHT22;32051;48.882;9.210;2023-05-07T10:23:04;25.50;99.10
46335;DHT22;32051;48.882;9.210;2023-05-07T10:25:36;25.70;97.50
46335;DHT22;32051;48.882;9.210;2023-05-07T10:28:10;25.70;96.90
46335;DHT22;32051;48.882;9.210;2023-05-07T10:30:58;25.80;96.90
46335;DHT22;32051;48.882;9.210;2023-05-07T10:33:33;25.90;96.40
46335;DHT22;32051;48.882;9.210;2023-05-07T10:36:01;26.10;96.20
46335;DHT22;32051;48.882;9.210;2023-05-07T10:38:30;26.20;97.50
46335;DHT22;32051;48.882;9.210;2023-05-07T10:40:58;26.30;95.40
46335;DHT22;32051;48.882;9.210;2023-05-07T10:43:25;26.30;96.20
46335;DHT22;32051;48.882;9.210;2023-05-07T10:51:39;26.30;96.00
46335;DHT22;32051;48.882;9.210;2023-05-07T10:54:19;26.40;96.40
46335;DHT22;32051;48.882;9.210;2023-05-07T10:56:53;26.60;95.20
46335;DHT22;32051;48.882;9.210;2023-05-07T10:59:31;26.80;94.60
46335;DHT22;32051;48.882;9.210;2023-05-07T11:02:03;27.30;99.90
46335;DHT22;32051;48.882;9.210;2023-05-07T11:05:21;27.70;99.90
46335;DHT22;32051;48.882;9.210;2023-05-07T11:08:03;27.90;93.80
46335;DHT22;32051;48.882;9.210;2023-05-07T11:10:56;27.70;93.50
46335;DHT22;32051;48.882;9.210;2023-05-07T11:13:54;27.20;93.90
46335;DHT22;32051;48.882;9.210;2023-05-07T11:16:41;26.80;93.50
46335;DHT22;32051;48.882;9.210;2023-05-07T11:19:54;26.50;94.30
46335;DHT22;32051;48.882;9.210;2023-05-07T11:25:18;25.90;95.60
46335;DHT22;32051;48.882;9.210;2023-05-07T11:27:53;25.60;94.00
46335;DHT22;32051;48.882;9.210;2023-05-07T11:30:19;25.40;94.50
46335;DHT22;32051;48.882;9.210;2023-05-07T11:32:47;25.30;94.90
46335;DHT22;32051;48.882;9.210;2023-05-07T11:35:15;25.20;95.20
46335;DHT22;32051;48.882;9.210;2023-05-07T11:37:44;25.10;95.30
46335;DHT22;32051;48.882;9.210;2023-05-07T11:40:12;24.80;99.90
46335;DHT22;32051;48.882;9.210;2023-05-07T11:42:39;25.00;99.90
46335;DHT22;32051;48.882;9.210;2023-05-07T11:45:07;24.90;99.90
46335;DHT22;32051;48.882;9.210;2023-05-07T11:47:33;24.90;99.90
46335;DHT22;32051;48.882;9.210;2023-05-07T11:50:07;24.80;99.90
46335;DHT22;32051;48.882;9.210;2023-05-07T13:01:31;22.70;99.90
46335;DHT22;32051;48.882;9.210;2023-05-07T13:04:05;22.60;99.90
46335;DHT22;32051;48.882;9.210;2023-05-07T13:06:31;22.30;99.80
46335;DHT22;32051;48.882;9.210;2023-05-07T13:08:56;21.90;99.90
46335;DHT22;32051;48.882;9.210;2023-05-07T13:11:22;21.60;99.90
46335;DHT22;32051;48.882;9.210;2023-05-07T13:13:48;21.30;99.90
46335;DHT22;32051;48.882;9.210;2023-05-07T13:16:14;21.10;99.90
